sensor_id;sensor_type;location;lat;lon;timestamp;P1;durP1;ratioP1;P2;durP2;ratioP2
76597;SDS011;65486;53.144;18.134;2023-02-10T00:01:41;27.30;;;10.10;;
76597;SDS011;65486;53.144;18.134;2023-02-10T00:04:12;15.40;;;6.30;;
76597;SDS011;65486;53.144;18.134;2023-02-10T00:06:43;29.20;;;11.10;;
76597;SDS011;65486;53.144;18.134;2023-02-10T00:09:12;29.50;;;11.70;;
76597;SDS011;65486;53.144;18.134;2023-02-10T00:11:41;29.80;;;11.60;;
76597;SDS011;65486;53.144;18.134;2023-02-10T00:14:35;19.10;;;9.00;;
76597;SDS011;65486;53.144;18.134;2023-02-10T00:17:01;26.00;;;10.60;;
76597;SDS011;65486;53.144;18.134;2023-02-10T00:19:28;28.50;;;11.40;;
76597;SDS011;65486;53.144;18.134;2023-02-10T00:21:57;21.70;;;8.50;;
76597;SDS011;65486;53.144;18.134;2023-02-10T00:24:24;22.10;;;8.60;;
76597;SDS011;65486;53.144;18.134;2023-02-10T00:26:51;40.50;;;13.50;;
76597;SDS011;65486;53.144;18.134;2023-02-10T00:29:18;40.00;;;14.30;;
76597;SDS011;65486;53.144;18.134;2023-02-10T00:31:46;33.20;;;13.80;;
76597;SDS011;65486;53.144;18.134;2023-02-10T00:34:14;29.00;;;12.30;;
76597;SDS011;65486;53.144;18.134;2023-02-10T00:36:45;29.20;;;11.40;;
76597;SDS011;65486;53.144;18.134;2023-02-10T00:39:12;30.60;;;11.10;;
76597;SDS011;65486;53.144;18.134;2023-02-10T00:41:40;24.40;;;9.70;;
76597;SDS011;65486;53.144;18.134;2023-02-10T00:44:10;30.10;;;10.40;;
76597;SDS011;65486;53.144;18.134;2023-02-10T00:46:41;19.80;;;8.00;;
76597;SDS011;65486;53.144;18.134;2023-02-10T00:49:11;23.00;;;9.00;;
76597;SDS011;65486;53.144;18.134;2023-02-10T00:51:40;38.40;;;11.40;;
76597;SDS011;65486;53.144;18.134;2023-02-10T00:54:08;24.40;;;10.50;;
76597;SDS011;65486;53.144;18.134;2023-02-10T00:56:40;24.60;;;10.50;;
76597;SDS011;65486;53.144;18.134;2023-02-10T00:59:08;27.90;;;11.30;;
76597;SDS011;65486;53.144;18.134;2023-02-10T01:01:37;20.30;;;7.60;;
76597;SDS011;65486;53.144;18.134;2023-02-10T01:04:04;18.70;;;6.90;;
76597;SDS011;65486;53.144;18.134;2023-02-10T01:06:30;31.10;;;11.40;;
76597;SDS011;65486;53.144;18.134;2023-02-10T01:08:58;37.20;;;13.40;;
76597;SDS011;65486;53.144;18.134;2023-02-10T01:11:27;29.60;;;10.40;;
76597;SDS011;65486;53.144;18.134;2023-02-10T01:13:58;27.60;;;11.10;;
76597;SDS011;65486;53.144;18.134;2023-02-10T01:16:28;27.40;;;9.90;;
76597;SDS011;65486;53.144;18.134;2023-02-10T01:18:57;24.40;;;9.50;;
76597;SDS011;65486;53.144;18.134;2023-02-10T01:21:25;9.60;;;4.00;;
76597;SDS011;65486;53.144;18.134;2023-02-10T01:23:52;15.00;;;5.30;;
76597;SDS011;65486;53.144;18.134;2023-02-10T01:26:20;23.50;;;8.70;;
76597;SDS011;65486;53.144;18.134;2023-02-10T01:28:50;16.90;;;6.70;;
76597;SDS011;65486;53.144;18.134;2023-02-10T01:31:21;18.00;;;7.80;;
76597;SDS011;65486;53.144;18.134;2023-02-10T01:33:50;25.50;;;11.00;;
76597;SDS011;65486;53.144;18.134;2023-02-10T01:36:21;15.00;;;6.30;;
76597;SDS011;65486;53.144;18.134;2023-02-10T01:38:49;27.00;;;10.70;;
76597;SDS011;65486;53.144;18.134;2023-02-10T01:41:16;21.60;;;7.20;;
76597;SDS011;65486;53.144;18.134;2023-02-10T01:43:55;30.60;;;11.70;;
76597;SDS011;65486;53.144;18.134;2023-02-10T01:46:32;24.90;;;10.00;;
76597;SDS011;65486;53.144;18.134;2023-02-10T01:49:04;26.50;;;10.00;;
76597;SDS011;65486;53.144;18.134;2023-02-10T01:51:48;24.50;;;8.50;;
76597;SDS011;65486;53.144;18.134;2023-02-10T01:54:24;15.00;;;6.90;;
76597;SDS011;65486;53.144;18.134;2023-02-10T01:57:02;21.60;;;8.00;;
76597;SDS011;65486;53.144;18.134;2023-02-10T01:59:30;11.90;;;4.00;;
76597;SDS011;65486;53.144;18.134;2023-02-10T02:02:06;20.10;;;8.90;;
76597;SDS011;65486;53.144;18.134;2023-02-10T02:04:42;18.10;;;7.70;;
76597;SDS011;65486;53.144;18.134;2023-02-10T02:07:18;23.00;;;7.90;;
76597;SDS011;65486;53.144;18.134;2023-02-10T02:09:52;14.90;;;6.60;;
76597;SDS011;65486;53.144;18.134;2023-02-10T02:18:33;28.90;;;11.40;;
76597;SDS011;65486;53.144;18.134;2023-02-10T02:37:43;20.30;;;8.40;;
76597;SDS011;65486;53.144;18.134;2023-02-10T02:40:18;17.50;;;6.80;;
76597;SDS011;65486;53.144;18.134;2023-02-10T02:42:50;17.40;;;7.10;;
76597;SDS011;65486;53.144;18.134;2023-02-10T02:48:31;16.00;;;7.10;;
76597;SDS011;65486;53.144;18.134;2023-02-10T02:51:24;19.20;;;6.90;;
76597;SDS011;65486;53.144;18.134;2023-02-10T02:59:39;31.90;;;12.30;;
76597;SDS011;65486;53.144;18.134;2023-02-10T03:02:29;26.70;;;10.40;;
76597;SDS011;65486;53.144;18.134;2023-02-10T03:04:59;27.20;;;11.50;;
76597;SDS011;65486;53.144;18.134;2023-02-10T03:07:27;27.40;;;11.80;;
76597;SDS011;65486;53.144;18.134;2023-02-10T03:10:51;24.10;;;9.70;;
76597;SDS011;65486;53.144;18.134;2023-02-10T03:13:18;27.90;;;10.30;;
76597;SDS011;65486;53.144;18.134;2023-02-10T03:15:44;22.10;;;8.80;;
76597;SDS011;65486;53.144;18.134;2023-02-10T03:18:11;21.50;;;9.50;;
76597;SDS011;65486;53.144;18.134;2023-02-10T03:20:39;20.10;;;9.00;;
76597;SDS011;65486;53.144;18.134;2023-02-10T03:23:12;22.00;;;8.90;;
76597;SDS011;65486;53.144;18.134;2023-02-10T03:25:44;14.00;;;6.00;;
76597;SDS011;65486;53.144;18.134;2023-02-10T03:28:19;22.70;;;9.00;;
76597;SDS011;65486;53.144;18.134;2023-02-10T03:30:47;18.80;;;7.80;;
76597;SDS011;65486;53.144;18.134;2023-02-10T03:33:17;23.50;;;9.90;;
76597;SDS011;65486;53.144;18.134;2023-02-10T03:35:44;26.00;;;10.90;;
76597;SDS011;65486;53.144;18.134;2023-02-10T03:38:12;24.60;;;10.00;;
76597;SDS011;65486;53.144;18.134;2023-02-10T03:40:39;24.80;;;11.00;;
76597;SDS011;65486;53.144;18.134;2023-02-10T03:43:07;19.20;;;7.20;;
76597;SDS011;65486;53.144;18.134;2023-02-10T03:45:37;25.40;;;10.20;;
76597;SDS011;65486;53.144;18.134;2023-02-10T03:48:05;24.20;;;9.60;;
76597;SDS011;65486;53.144;18.134;2023-02-10T03:50:31;22.90;;;8.60;;
76597;SDS011;65486;53.144;18.134;2023-02-10T03:52:58;12.80;;;5.50;;
76597;SDS011;65486;53.144;18.134;2023-02-10T03:55:25;21.80;;;9.50;;
76597;SDS011;65486;53.144;18.134;2023-02-10T03:57:51;22.20;;;9.50;;
76597;SDS011;65486;53.144;18.134;2023-02-10T04:00:18;27.80;;;10.20;;
76597;SDS011;65486;53.144;18.134;2023-02-10T04:02:46;29.10;;;11.00;;
76597;SDS011;65486;53.144;18.134;2023-02-10T04:05:13;29.90;;;12.10;;
76597;SDS011;65486;53.144;18.134;2023-02-10T04:07:40;26.60;;;10.70;;
76597;SDS011;65486;53.144;18.134;2023-02-10T04:10:07;19.30;;;7.80;;
76597;SDS011;65486;53.144;18.134;2023-02-10T04:12:36;25.30;;;10.50;;
76597;SDS011;65486;53.144;18.134;2023-02-10T04:15:04;12.50;;;4.90;;
76597;SDS011;65486;53.144;18.134;2023-02-10T04:17:31;15.00;;;6.20;;
76597;SDS011;65486;53.144;18.134;2023-02-10T04:19:58;23.00;;;8.00;;
76597;SDS011;65486;53.144;18.134;2023-02-10T04:22:25;13.80;;;5.40;;
76597;SDS011;65486;53.144;18.134;2023-02-10T04:24:52;11.20;;;4.30;;
76597;SDS011;65486;53.144;18.134;2023-02-10T04:27:19;21.90;;;9.20;;
76597;SDS011;65486;53.144;18.134;2023-02-10T04:29:46;33.00;;;12.60;;
76597;SDS011;65486;53.144;18.134;2023-02-10T04:32:14;35.60;;;12.70;;
76597;SDS011;65486;53.144;18.134;2023-02-10T04:34:41;28.50;;;11.10;;
76597;SDS011;65486;53.144;18.134;2023-02-10T04:37:08;27.20;;;11.90;;
76597;SDS011;65486;53.144;18.134;2023-02-10T04:39:34;29.10;;;12.00;;
76597;SDS011;65486;53.144;18.134;2023-02-10T04:42:01;17.10;;;6.10;;
76597;SDS011;65486;53.144;18.134;2023-02-10T04:44:28;25.80;;;11.60;;
76597;SDS011;65486;53.144;18.134;2023-02-10T04:46:55;30.30;;;13.20;;
76597;SDS011;65486;53.144;18.134;2023-02-10T04:49:23;16.40;;;7.80;;
76597;SDS011;65486;53.144;18.134;2023-02-10T04:51:54;13.50;;;6.20;;
76597;SDS011;65486;53.144;18.134;2023-02-10T04:54:23;29.10;;;11.10;;
76597;SDS011;65486;53.144;18.134;2023-02-10T04:56:51;42.80;;;13.80;;
76597;SDS011;65486;53.144;18.134;2023-02-10T04:59:17;38.60;;;14.30;;
76597;SDS011;65486;53.144;18.134;2023-02-10T05:01:43;33.40;;;13.30;;
76597;SDS011;65486;53.144;18.134;2023-02-10T05:04:10;28.00;;;10.70;;
76597;SDS011;65486;53.144;18.134;2023-02-10T05:06:37;31.60;;;12.40;;
76597;SDS011;65486;53.144;18.134;2023-02-10T05:09:03;44.80;;;13.50;;
76597;SDS011;65486;53.144;18.134;2023-02-10T05:11:29;34.30;;;13.30;;
76597;SDS011;65486;53.144;18.134;2023-02-10T05:13:55;30.50;;;10.20;;
76597;SDS011;65486;53.144;18.134;2023-02-10T05:16:23;28.00;;;11.40;;
76597;SDS011;65486;53.144;18.134;2023-02-10T05:18:49;49.70;;;17.20;;
76597;SDS011;65486;53.144;18.134;2023-02-10T05:21:16;44.60;;;15.60;;
76597;SDS011;65486;53.144;18.134;2023-02-10T05:23:43;44.30;;;15.20;;
76597;SDS011;65486;53.144;18.134;2023-02-10T05:26:10;30.80;;;12.20;;
76597;SDS011;65486;53.144;18.134;2023-02-10T05:28:38;42.80;;;14.90;;
76597;SDS011;65486;53.144;18.134;2023-02-10T05:31:06;29.00;;;10.00;;
76597;SDS011;65486;53.144;18.134;2023-02-10T05:33:37;30.90;;;11.00;;
76597;SDS011;65486;53.144;18.134;2023-02-10T05:36:04;23.60;;;8.30;;
76597;SDS011;65486;53.144;18.134;2023-02-10T05:38:32;22.70;;;8.10;;
76597;SDS011;65486;53.144;18.134;2023-02-10T05:40:59;36.50;;;12.80;;
76597;SDS011;65486;53.144;18.134;2023-02-10T05:43:25;39.70;;;14.00;;
76597;SDS011;65486;53.144;18.134;2023-02-10T05:45:54;34.80;;;12.80;;
76597;SDS011;65486;53.144;18.134;2023-02-10T05:48:21;36.10;;;14.30;;
76597;SDS011;65486;53.144;18.134;2023-02-10T05:50:52;35.10;;;13.10;;
76597;SDS011;65486;53.144;18.134;2023-02-10T05:53:19;28.50;;;10.20;;
76597;SDS011;65486;53.144;18.134;2023-02-10T05:55:47;31.30;;;11.80;;
76597;SDS011;65486;53.144;18.134;2023-02-10T05:58:15;28.70;;;11.30;;
76597;SDS011;65486;53.144;18.134;2023-02-10T06:00:42;20.90;;;7.10;;
76597;SDS011;65486;53.144;18.134;2023-02-10T06:03:08;34.10;;;13.60;;
76597;SDS011;65486;53.144;18.134;2023-02-10T06:05:35;19.10;;;7.20;;
76597;SDS011;65486;53.144;18.134;2023-02-10T06:08:01;31.50;;;12.80;;
76597;SDS011;65486;53.144;18.134;2023-02-10T06:10:29;31.70;;;12.40;;
76597;SDS011;65486;53.144;18.134;2023-02-10T06:12:57;28.00;;;11.50;;
76597;SDS011;65486;53.144;18.134;2023-02-10T06:15:25;31.40;;;12.30;;
76597;SDS011;65486;53.144;18.134;2023-02-10T06:17:52;17.50;;;7.30;;
76597;SDS011;65486;53.144;18.134;2023-02-10T06:20:20;23.80;;;9.30;;
76597;SDS011;65486;53.144;18.134;2023-02-10T06:22:46;12.80;;;4.80;;
76597;SDS011;65486;53.144;18.134;2023-02-10T06:25:17;31.60;;;11.80;;
76597;SDS011;65486;53.144;18.134;2023-02-10T06:27:44;26.80;;;9.70;;
76597;SDS011;65486;53.144;18.134;2023-02-10T06:30:10;31.40;;;11.50;;
76597;SDS011;65486;53.144;18.134;2023-02-10T06:32:37;27.00;;;11.50;;
76597;SDS011;65486;53.144;18.134;2023-02-10T06:35:05;27.50;;;11.40;;
76597;SDS011;65486;53.144;18.134;2023-02-10T06:37:40;29.70;;;12.30;;
76597;SDS011;65486;53.144;18.134;2023-02-10T06:40:09;18.30;;;7.90;;
76597;SDS011;65486;53.144;18.134;2023-02-10T06:42:36;22.30;;;9.00;;
76597;SDS011;65486;53.144;18.134;2023-02-10T06:45:03;24.70;;;10.90;;
76597;SDS011;65486;53.144;18.134;2023-02-10T06:47:31;33.00;;;12.90;;
76597;SDS011;65486;53.144;18.134;2023-02-10T06:49:57;24.40;;;9.50;;
76597;SDS011;65486;53.144;18.134;2023-02-10T06:52:23;27.50;;;11.50;;
76597;SDS011;65486;53.144;18.134;2023-02-10T06:54:51;27.20;;;12.40;;
76597;SDS011;65486;53.144;18.134;2023-02-10T06:57:19;27.80;;;10.30;;
76597;SDS011;65486;53.144;18.134;2023-02-10T06:59:48;25.90;;;9.90;;
76597;SDS011;65486;53.144;18.134;2023-02-10T07:02:16;20.30;;;6.90;;
76597;SDS011;65486;53.144;18.134;2023-02-10T07:04:45;28.70;;;12.10;;
76597;SDS011;65486;53.144;18.134;2023-02-10T07:07:12;18.60;;;7.30;;
76597;SDS011;65486;53.144;18.134;2023-02-10T07:09:39;30.10;;;11.50;;
76597;SDS011;65486;53.144;18.134;2023-02-10T07:12:05;32.90;;;12.70;;
76597;SDS011;65486;53.144;18.134;2023-02-10T07:14:34;34.40;;;14.40;;
76597;SDS011;65486;53.144;18.134;2023-02-10T07:17:01;36.10;;;16.50;;
76597;SDS011;65486;53.144;18.134;2023-02-10T07:19:28;21.10;;;7.40;;
76597;SDS011;65486;53.144;18.134;2023-02-10T07:21:55;19.90;;;8.00;;
76597;SDS011;65486;53.144;18.134;2023-02-10T07:24:24;24.50;;;9.60;;
76597;SDS011;65486;53.144;18.134;2023-02-10T07:26:51;22.80;;;9.20;;
76597;SDS011;65486;53.144;18.134;2023-02-10T07:29:17;34.70;;;13.30;;
76597;SDS011;65486;53.144;18.134;2023-02-10T07:31:47;23.70;;;9.10;;
76597;SDS011;65486;53.144;18.134;2023-02-10T07:34:14;25.60;;;10.10;;
76597;SDS011;65486;53.144;18.134;2023-02-10T07:36:43;28.50;;;11.60;;
76597;SDS011;65486;53.144;18.134;2023-02-10T07:39:12;31.90;;;12.10;;
76597;SDS011;65486;53.144;18.134;2023-02-10T07:41:38;27.30;;;10.70;;
76597;SDS011;65486;53.144;18.134;2023-02-10T07:44:06;24.00;;;9.80;;
76597;SDS011;65486;53.144;18.134;2023-02-10T07:46:36;31.50;;;11.90;;
76597;SDS011;65486;53.144;18.134;2023-02-10T07:49:08;27.80;;;10.30;;
76597;SDS011;65486;53.144;18.134;2023-02-10T07:51:35;29.70;;;12.80;;
76597;SDS011;65486;53.144;18.134;2023-02-10T07:54:03;30.00;;;11.70;;
76597;SDS011;65486;53.144;18.134;2023-02-10T07:56:34;33.90;;;12.40;;
76597;SDS011;65486;53.144;18.134;2023-02-10T07:59:02;26.20;;;10.50;;
76597;SDS011;65486;53.144;18.134;2023-02-10T08:01:31;35.00;;;12.50;;
76597;SDS011;65486;53.144;18.134;2023-02-10T08:03:57;28.30;;;10.80;;
76597;SDS011;65486;53.144;18.134;2023-02-10T08:06:25;26.70;;;10.90;;
76597;SDS011;65486;53.144;18.134;2023-02-10T08:08:52;19.50;;;7.20;;
76597;SDS011;65486;53.144;18.134;2023-02-10T08:11:19;34.20;;;10.80;;
76597;SDS011;65486;53.144;18.134;2023-02-10T08:13:46;35.00;;;12.70;;
76597;SDS011;65486;53.144;18.134;2023-02-10T08:16:13;33.10;;;13.40;;
76597;SDS011;65486;53.144;18.134;2023-02-10T08:18:41;30.60;;;12.20;;
76597;SDS011;65486;53.144;18.134;2023-02-10T08:21:10;21.80;;;7.50;;
76597;SDS011;65486;53.144;18.134;2023-02-10T08:23:38;34.20;;;12.60;;
76597;SDS011;65486;53.144;18.134;2023-02-10T08:26:06;24.30;;;9.10;;
76597;SDS011;65486;53.144;18.134;2023-02-10T08:28:35;29.40;;;10.80;;
76597;SDS011;65486;53.144;18.134;2023-02-10T08:31:04;30.40;;;12.50;;
76597;SDS011;65486;53.144;18.134;2023-02-10T08:33:36;28.90;;;10.30;;
76597;SDS011;65486;53.144;18.134;2023-02-10T08:36:04;38.20;;;13.70;;
76597;SDS011;65486;53.144;18.134;2023-02-10T08:38:32;34.10;;;13.20;;
76597;SDS011;65486;53.144;18.134;2023-02-10T08:40:59;17.50;;;7.90;;
76597;SDS011;65486;53.144;18.134;2023-02-10T08:43:30;31.40;;;10.90;;
76597;SDS011;65486;53.144;18.134;2023-02-10T08:46:01;28.00;;;11.90;;
76597;SDS011;65486;53.144;18.134;2023-02-10T08:48:29;33.20;;;12.40;;
76597;SDS011;65486;53.144;18.134;2023-02-10T08:50:58;27.80;;;10.40;;
76597;SDS011;65486;53.144;18.134;2023-02-10T08:54:01;25.10;;;10.00;;
76597;SDS011;65486;53.144;18.134;2023-02-10T08:56:30;30.10;;;12.60;;
76597;SDS011;65486;53.144;18.134;2023-02-10T08:58:57;38.60;;;13.90;;
76597;SDS011;65486;53.144;18.134;2023-02-10T09:01:24;23.30;;;8.90;;
76597;SDS011;65486;53.144;18.134;2023-02-10T09:03:58;34.20;;;11.90;;
76597;SDS011;65486;53.144;18.134;2023-02-10T09:06:27;33.90;;;12.20;;
76597;SDS011;65486;53.144;18.134;2023-02-10T09:08:56;25.60;;;9.90;;
76597;SDS011;65486;53.144;18.134;2023-02-10T09:11:26;31.60;;;11.50;;
76597;SDS011;65486;53.144;18.134;2023-02-10T09:13:52;34.60;;;11.80;;
76597;SDS011;65486;53.144;18.134;2023-02-10T09:16:23;24.10;;;9.40;;
76597;SDS011;65486;53.144;18.134;2023-02-10T09:18:56;46.30;;;17.50;;
76597;SDS011;65486;53.144;18.134;2023-02-10T09:21:33;38.10;;;14.70;;
76597;SDS011;65486;53.144;18.134;2023-02-10T09:23:59;42.00;;;15.20;;
76597;SDS011;65486;53.144;18.134;2023-02-10T09:26:25;38.60;;;16.50;;
76597;SDS011;65486;53.144;18.134;2023-02-10T09:28:52;31.40;;;12.30;;
76597;SDS011;65486;53.144;18.134;2023-02-10T09:31:18;27.50;;;11.40;;
76597;SDS011;65486;53.144;18.134;2023-02-10T09:33:44;30.10;;;12.60;;
76597;SDS011;65486;53.144;18.134;2023-02-10T09:36:15;26.20;;;10.90;;
76597;SDS011;65486;53.144;18.134;2023-02-10T09:38:44;34.80;;;13.00;;
76597;SDS011;65486;53.144;18.134;2023-02-10T09:44:21;37.30;;;12.40;;
76597;SDS011;65486;53.144;18.134;2023-02-10T09:55:35;37.40;;;13.60;;
76597;SDS011;65486;53.144;18.134;2023-02-10T10:00:48;37.60;;;12.30;;
76597;SDS011;65486;53.144;18.134;2023-02-10T10:03:23;26.90;;;10.00;;
76597;SDS011;65486;53.144;18.134;2023-02-10T10:11:42;33.10;;;13.30;;
76597;SDS011;65486;53.144;18.134;2023-02-10T10:14:19;34.30;;;11.60;;
76597;SDS011;65486;53.144;18.134;2023-02-10T10:19:52;33.90;;;12.80;;
76597;SDS011;65486;53.144;18.134;2023-02-10T10:22:31;22.30;;;9.10;;
76597;SDS011;65486;53.144;18.134;2023-02-10T10:30:55;32.10;;;10.90;;
76597;SDS011;65486;53.144;18.134;2023-02-10T10:33:37;31.50;;;10.70;;
76597;SDS011;65486;53.144;18.134;2023-02-10T10:36:22;25.90;;;10.00;;
76597;SDS011;65486;53.144;18.134;2023-02-10T10:39:28;24.50;;;9.30;;
76597;SDS011;65486;53.144;18.134;2023-02-10T10:41:55;37.40;;;13.80;;
76597;SDS011;65486;53.144;18.134;2023-02-10T10:44:23;26.90;;;11.10;;
76597;SDS011;65486;53.144;18.134;2023-02-10T10:46:57;35.50;;;12.70;;
76597;SDS011;65486;53.144;18.134;2023-02-10T10:49:41;37.50;;;13.90;;
76597;SDS011;65486;53.144;18.134;2023-02-10T10:52:18;41.30;;;14.30;;
76597;SDS011;65486;53.144;18.134;2023-02-10T10:55:03;38.30;;;12.80;;
76597;SDS011;65486;53.144;18.134;2023-02-10T10:57:39;37.90;;;13.40;;
76597;SDS011;65486;53.144;18.134;2023-02-10T11:05:55;36.90;;;14.10;;
76597;SDS011;65486;53.144;18.134;2023-02-10T11:08:27;31.00;;;10.20;;
76597;SDS011;65486;53.144;18.134;2023-02-10T11:10:57;34.60;;;13.70;;
76597;SDS011;65486;53.144;18.134;2023-02-10T11:13:29;34.90;;;12.00;;
76597;SDS011;65486;53.144;18.134;2023-02-10T11:16:31;38.00;;;14.70;;
76597;SDS011;65486;53.144;18.134;2023-02-10T11:18:51;31.20;;;11.50;;
76597;SDS011;65486;53.144;18.134;2023-02-10T11:21:33;38.70;;;12.40;;
76597;SDS011;65486;53.144;18.134;2023-02-10T11:27:05;37.00;;;11.50;;
76597;SDS011;65486;53.144;18.134;2023-02-10T11:29:40;38.40;;;13.20;;
76597;SDS011;65486;53.144;18.134;2023-02-10T11:32:21;44.40;;;15.10;;
76597;SDS011;65486;53.144;18.134;2023-02-10T11:35:01;39.80;;;14.30;;
76597;SDS011;65486;53.144;18.134;2023-02-10T11:37:33;42.90;;;16.00;;
76597;SDS011;65486;53.144;18.134;2023-02-10T11:40:23;42.50;;;16.50;;
76597;SDS011;65486;53.144;18.134;2023-02-10T11:42:56;41.00;;;15.30;;
76597;SDS011;65486;53.144;18.134;2023-02-10T11:45:27;41.30;;;15.50;;
76597;SDS011;65486;53.144;18.134;2023-02-10T11:48:01;33.10;;;11.70;;
76597;SDS011;65486;53.144;18.134;2023-02-10T11:50:43;45.50;;;15.20;;
76597;SDS011;65486;53.144;18.134;2023-02-10T11:53:21;45.60;;;16.30;;
76597;SDS011;65486;53.144;18.134;2023-02-10T12:11:47;42.40;;;13.00;;
76597;SDS011;65486;53.144;18.134;2023-02-10T12:15:05;49.80;;;17.90;;
76597;SDS011;65486;53.144;18.134;2023-02-10T12:17:48;39.20;;;16.10;;
76597;SDS011;65486;53.144;18.134;2023-02-10T12:21:02;49.50;;;17.20;;
76597;SDS011;65486;53.144;18.134;2023-02-10T12:26:36;32.40;;;11.70;;
76597;SDS011;65486;53.144;18.134;2023-02-10T12:29:32;34.70;;;12.00;;
76597;SDS011;65486;53.144;18.134;2023-02-10T12:49:41;43.50;;;14.80;;
76597;SDS011;65486;53.144;18.134;2023-02-10T12:52:18;52.50;;;17.50;;
76597;SDS011;65486;53.144;18.134;2023-02-10T12:55:01;47.70;;;17.10;;
76597;SDS011;65486;53.144;18.134;2023-02-10T12:57:38;52.80;;;17.00;;
76597;SDS011;65486;53.144;18.134;2023-02-10T13:03:37;28.30;;;10.50;;
76597;SDS011;65486;53.144;18.134;2023-02-10T13:08:51;36.70;;;12.70;;
76597;SDS011;65486;53.144;18.134;2023-02-10T13:11:27;36.40;;;13.60;;
76597;SDS011;65486;53.144;18.134;2023-02-10T13:14:13;38.40;;;14.30;;
76597;SDS011;65486;53.144;18.134;2023-02-10T13:16:53;50.20;;;16.40;;
76597;SDS011;65486;53.144;18.134;2023-02-10T13:26:52;37.50;;;14.10;;
76597;SDS011;65486;53.144;18.134;2023-02-10T13:35:18;40.30;;;11.60;;
76597;SDS011;65486;53.144;18.134;2023-02-10T13:37:49;48.80;;;17.30;;
76597;SDS011;65486;53.144;18.134;2023-02-10T13:40:46;52.70;;;18.20;;
76597;SDS011;65486;53.144;18.134;2023-02-10T13:43:26;48.50;;;16.70;;
76597;SDS011;65486;53.144;18.134;2023-02-10T13:46:05;48.50;;;16.60;;
76597;SDS011;65486;53.144;18.134;2023-02-10T13:49:11;37.10;;;14.70;;
76597;SDS011;65486;53.144;18.134;2023-02-10T13:52:12;46.50;;;17.80;;
76597;SDS011;65486;53.144;18.134;2023-02-10T13:54:58;39.30;;;14.10;;
76597;SDS011;65486;53.144;18.134;2023-02-10T14:01:33;51.00;;;16.90;;
76597;SDS011;65486;53.144;18.134;2023-02-10T14:04:41;45.20;;;13.90;;
76597;SDS011;65486;53.144;18.134;2023-02-10T14:10:01;48.00;;;17.70;;
76597;SDS011;65486;53.144;18.134;2023-02-10T14:12:34;44.80;;;16.80;;
76597;SDS011;65486;53.144;18.134;2023-02-10T14:18:02;35.70;;;12.70;;
76597;SDS011;65486;53.144;18.134;2023-02-10T14:23:39;55.50;;;19.90;;
76597;SDS011;65486;53.144;18.134;2023-02-10T14:26:20;59.10;;;20.20;;
76597;SDS011;65486;53.144;18.134;2023-02-10T14:29:00;50.50;;;17.40;;
76597;SDS011;65486;53.144;18.134;2023-02-10T14:31:38;48.50;;;18.60;;
76597;SDS011;65486;53.144;18.134;2023-02-10T14:34:32;45.80;;;16.30;;
76597;SDS011;65486;53.144;18.134;2023-02-10T14:37:15;46.30;;;17.80;;
76597;SDS011;65486;53.144;18.134;2023-02-10T14:42:59;51.80;;;20.30;;
76597;SDS011;65486;53.144;18.134;2023-02-10T14:45:30;45.60;;;16.00;;
76597;SDS011;65486;53.144;18.134;2023-02-10T14:58:09;46.30;;;15.10;;
76597;SDS011;65486;53.144;18.134;2023-02-10T15:00:55;40.00;;;16.00;;
76597;SDS011;65486;53.144;18.134;2023-02-10T15:03:30;44.30;;;16.50;;
76597;SDS011;65486;53.144;18.134;2023-02-10T15:06:02;52.30;;;18.80;;
76597;SDS011;65486;53.144;18.134;2023-02-10T15:08:37;47.60;;;18.30;;
76597;SDS011;65486;53.144;18.134;2023-02-10T15:11:15;44.30;;;16.60;;
76597;SDS011;65486;53.144;18.134;2023-02-10T15:14:24;42.10;;;16.20;;
76597;SDS011;65486;53.144;18.134;2023-02-10T15:17:01;50.20;;;17.80;;
76597;SDS011;65486;53.144;18.134;2023-02-10T15:19:32;50.50;;;18.50;;
76597;SDS011;65486;53.144;18.134;2023-02-10T15:21:59;52.30;;;18.00;;
76597;SDS011;65486;53.144;18.134;2023-02-10T15:24:27;52.20;;;16.90;;
76597;SDS011;65486;53.144;18.134;2023-02-10T15:27:12;50.70;;;18.70;;
76597;SDS011;65486;53.144;18.134;2023-02-10T15:29:41;49.40;;;17.60;;
76597;SDS011;65486;53.144;18.134;2023-02-10T15:32:15;49.90;;;16.90;;
76597;SDS011;65486;53.144;18.134;2023-02-10T15:34:51;42.50;;;15.90;;
76597;SDS011;65486;53.144;18.134;2023-02-10T15:37:23;45.60;;;16.80;;
76597;SDS011;65486;53.144;18.134;2023-02-10T15:39:59;51.90;;;17.10;;
76597;SDS011;65486;53.144;18.134;2023-02-10T15:42:30;38.60;;;13.70;;
76597;SDS011;65486;53.144;18.134;2023-02-10T15:45:14;46.40;;;16.90;;
76597;SDS011;65486;53.144;18.134;2023-02-10T15:50:22;44.10;;;17.40;;
76597;SDS011;65486;53.144;18.134;2023-02-10T15:52:48;53.60;;;18.70;;
76597;SDS011;65486;53.144;18.134;2023-02-10T15:55:20;48.90;;;17.20;;
76597;SDS011;65486;53.144;18.134;2023-02-10T15:57:57;45.90;;;17.00;;
76597;SDS011;65486;53.144;18.134;2023-02-10T16:00:26;52.60;;;18.70;;
76597;SDS011;65486;53.144;18.134;2023-02-10T16:02:55;48.50;;;18.70;;
76597;SDS011;65486;53.144;18.134;2023-02-10T16:05:22;64.20;;;20.00;;
76597;SDS011;65486;53.144;18.134;2023-02-10T16:07:53;53.20;;;19.80;;
76597;SDS011;65486;53.144;18.134;2023-02-10T16:10:34;57.80;;;20.00;;
76597;SDS011;65486;53.144;18.134;2023-02-10T16:13:06;58.40;;;21.50;;
76597;SDS011;65486;53.144;18.134;2023-02-10T16:15:52;53.20;;;19.80;;
76597;SDS011;65486;53.144;18.134;2023-02-10T16:18:21;49.20;;;19.20;;
76597;SDS011;65486;53.144;18.134;2023-02-10T16:20:50;50.20;;;19.20;;
76597;SDS011;65486;53.144;18.134;2023-02-10T16:23:18;54.10;;;20.50;;
76597;SDS011;65486;53.144;18.134;2023-02-10T16:25:55;52.70;;;19.60;;
76597;SDS011;65486;53.144;18.134;2023-02-10T16:28:50;49.10;;;19.00;;
76597;SDS011;65486;53.144;18.134;2023-02-10T16:31:20;50.90;;;19.20;;
76597;SDS011;65486;53.144;18.134;2023-02-10T16:33:49;51.60;;;19.30;;
76597;SDS011;65486;53.144;18.134;2023-02-10T16:36:18;51.10;;;19.50;;
76597;SDS011;65486;53.144;18.134;2023-02-10T16:38:47;51.50;;;19.10;;
76597;SDS011;65486;53.144;18.134;2023-02-10T16:41:22;52.50;;;19.10;;
76597;SDS011;65486;53.144;18.134;2023-02-10T16:43:49;54.10;;;18.30;;
76597;SDS011;65486;53.144;18.134;2023-02-10T16:46:19;51.00;;;19.20;;
76597;SDS011;65486;53.144;18.134;2023-02-10T16:48:46;51.60;;;20.10;;
76597;SDS011;65486;53.144;18.134;2023-02-10T16:51:15;53.50;;;18.70;;
76597;SDS011;65486;53.144;18.134;2023-02-10T16:53:42;53.00;;;19.20;;
76597;SDS011;65486;53.144;18.134;2023-02-10T16:56:16;50.50;;;17.80;;
76597;SDS011;65486;53.144;18.134;2023-02-10T16:58:46;50.00;;;18.90;;
76597;SDS011;65486;53.144;18.134;2023-02-10T17:01:19;52.10;;;19.40;;
76597;SDS011;65486;53.144;18.134;2023-02-10T17:03:46;48.60;;;18.60;;
76597;SDS011;65486;53.144;18.134;2023-02-10T17:06:15;53.30;;;18.50;;
76597;SDS011;65486;53.144;18.134;2023-02-10T17:08:44;46.10;;;18.10;;
76597;SDS011;65486;53.144;18.134;2023-02-10T17:11:13;47.50;;;18.70;;
76597;SDS011;65486;53.144;18.134;2023-02-10T17:13:42;51.80;;;19.20;;